.
WxDataArchive / Data Records for 2015-02-02
2015-02-01 February 2015 2015-02-03

Data Records for Monday, 02 February 2015

Time	Temp	Chill	HIndex	Humid	Dewpt	 Wind 	HiWind	WindDir	Rain 	Barom
-----	----	-----	------	-----	-----	------	------	-------	-----	-----
00:00	18.9	18.9	18.9	88	15.9	1	2	315	0.00	29.643 
00:05	18.8	18.8	18.8	88	15.8	1	4	315	0.00	29.643 
00:10	18.6	18.6	18.6	88	15.6	1	4	315	0.00	29.643 
00:15	18.4	18.4	18.4	88	15.5	1	4	315	0.00	29.661 
00:20	18.3	18.3	18.3	88	15.4	1	3	270	0.00	29.661 
00:25	18.3	18.3	18.3	88	15.4	1	5	270	0.00	29.661 
00:30	18.1	18.1	18.1	87	14.9	1	4	270	0.00	29.664 
00:35	18.0	18.0	18.0	87	14.8	1	5	315	0.00	29.664 
00:40	17.8	17.8	17.8	87	14.6	1	6	315	0.00	29.664 
00:45	17.7	17.7	17.7	87	14.5	1	5	338	0.00	29.670 
00:50	17.7	17.7	17.7	87	14.5	1	4	315	0.00	29.670 
00:55	17.5	17.5	17.5	87	14.3	0	3	292	0.00	29.670 
01:00	17.5	17.5	17.5	86	14.0	1	7	338	0.00	29.675 
01:05	17.3	17.3	17.3	86	13.8	1	5	338	0.00	29.675 
01:10	17.2	17.2	17.2	86	13.7	1	4	338	0.00	29.675 
01:15	17.2	17.2	17.2	86	13.7	1	2	315	0.00	29.682 
01:20	17.0	17.0	17.0	86	13.6	2	5	315	0.00	29.682 
01:25	16.9	16.9	16.9	86	13.5	1	3	0	0.00	29.682 
01:30	16.9	16.9	16.9	86	13.5	1	4	0	0.00	29.685 
01:35	16.7	16.7	16.7	86	13.3	1	5	338	0.00	29.685 
01:40	16.7	16.7	16.7	85	13.0	2	5	315	0.00	29.685 
01:45	16.7	16.7	16.7	85	13.0	1	4	315	0.00	29.689 
01:50	16.5	16.5	16.5	85	12.8	1	3	315	0.00	29.689 
01:55	16.5	16.5	16.5	85	12.8	1	5	338	0.00	29.689 
02:00	16.5	16.5	16.5	85	12.8	2	7	315	0.00	29.694 
02:05	16.5	16.5	16.5	85	12.8	2	5	338	0.00	29.694 
02:10	16.5	16.5	16.5	85	12.8	2	6	338	0.00	29.694 
02:15	16.4	16.4	16.4	84	12.4	2	6	315	0.00	29.698 
02:20	16.4	16.4	16.4	84	12.4	2	9	22	0.00	29.698 
02:25	16.4	16.4	16.4	84	12.4	1	3	0	0.00	29.698 
02:30	16.4	16.4	16.4	84	12.4	1	5	0	0.00	29.711 
02:35	16.4	16.4	16.4	84	12.4	1	5	338	0.00	29.711 
02:40	16.4	16.4	16.4	85	12.7	1	5	338	0.00	29.711 
02:45	16.4	16.4	16.4	85	12.7	1	4	338	0.00	29.727 
02:50	16.4	16.4	16.4	85	12.7	1	4	338	0.00	29.727 
02:55	16.2	16.2	16.2	85	12.5	1	3	292	0.00	29.727 
03:00	16.2	16.2	16.2	85	12.5	1	5	292	0.00	29.739 
03:05	16.2	16.2	16.2	85	12.5	1	4	338	0.00	29.739 
03:10	16.2	16.2	16.2	86	12.8	1	4	0	0.00	29.739 
03:15	16.2	16.2	16.2	86	12.8	1	9	338	0.00	29.750 
03:20	16.2	16.2	16.2	86	12.8	1	3	315	0.00	29.750 
03:25	16.4	16.4	16.4	86	13.0	1	3	292	0.00	29.750 
03:30	16.4	16.4	16.4	86	13.0	1	4	315	0.00	29.759 
03:35	16.4	16.4	16.4	86	13.0	1	3	315	0.00	29.759 
03:40	16.4	16.4	16.4	86	13.0	1	4	338	0.00	29.759 
03:45	16.4	16.4	16.4	86	13.0	1	2	292	0.00	29.772 
03:50	16.4	16.4	16.4	86	13.0	1	3	292	0.00	29.772 
03:55	16.4	16.4	16.4	86	13.0	1	3	315	0.00	29.772 
04:00	15.9	15.9	15.9	85	12.2	2	9	315	0.00	29.783 
04:05	15.4	15.4	15.4	85	11.7	2	5	338	0.00	29.783 
04:10	14.9	14.9	14.9	85	11.2	2	4	292	0.00	29.783 
04:15	14.6	14.6	14.6	85	10.9	2	5	0	0.00	29.795 
04:20	14.4	14.4	14.4	85	10.7	1	4	315	0.00	29.795 
04:25	14.3	14.3	14.3	85	10.6	1	5	292	0.00	29.795 
04:30	14.1	14.1	14.1	85	10.4	1	3	338	0.00	29.809 
04:35	14.0	14.0	14.0	85	10.3	1	5	338	0.00	29.809 
04:40	14.0	14.0	14.0	84	10.1	2	4	338	0.00	29.809 
04:45	13.8	13.8	13.8	84	9.9	2	4	315	0.00	29.821 
04:50	13.6	13.6	13.6	84	9.7	2	5	292	0.00	29.821 
04:55	13.6	13.6	13.6	84	9.7	2	4	292	0.00	29.821 
05:00	13.5	13.5	13.5	84	9.6	2	9	292	0.00	29.827 
05:05	13.3	13.3	13.3	84	9.4	1	5	338	0.00	29.827 
05:10	13.3	13.3	13.3	84	9.4	2	6	338	0.00	29.827 
05:15	13.3	13.3	13.3	84	9.4	2	4	315	0.00	29.843 
05:20	13.1	13.1	13.1	83	8.9	1	4	270	0.00	29.843 
05:25	13.1	13.1	13.1	83	8.9	1	4	338	0.00	29.843 
05:30	12.9	12.9	12.9	83	8.7	1	4	338	0.00	29.853 
05:35	12.9	12.9	12.9	83	8.7	1	3	292	0.00	29.853 
05:40	12.9	12.9	12.9	83	8.7	2	7	292	0.00	29.853 
05:45	12.8	12.8	12.8	83	8.6	2	4	292	0.00	29.861 
05:50	12.8	12.8	12.8	83	8.6	1	4	292	0.00	29.861 
05:55	12.8	12.8	12.8	82	8.4	1	4	338	0.00	29.861 
06:00	12.6	12.6	12.6	82	8.2	2	5	292	0.00	29.875 
06:05	12.6	12.6	12.6	82	8.2	2	6	338	0.00	29.875 
06:10	12.4	12.4	12.4	81	7.7	2	5	292	0.00	29.875 
06:15	12.3	12.3	12.3	81	7.6	2	5	315	0.00	29.879 
06:20	12.1	12.1	12.1	81	7.4	1	4	292	0.00	29.879 
06:25	12.1	12.1	12.1	81	7.4	1	6	338	0.00	29.879 
06:30	11.9	11.9	11.9	81	7.2	1	5	0	0.00	29.894 
06:35	11.7	11.7	11.7	81	7.0	2	6	292	0.00	29.894 
06:40	11.6	11.6	11.6	80	6.6	3	7	292	0.00	29.894 
06:45	11.4	11.4	11.4	80	6.5	2	6	292	0.00	29.908 
06:50	11.2	11.2	11.2	80	6.3	2	5	292	0.00	29.908 
06:55	10.9	10.9	10.9	80	6.0	1	4	292	0.00	29.908 
07:00	10.9	10.9	10.9	80	6.0	2	5	292	0.00	29.924 
07:05	10.7	10.7	10.7	80	5.8	2	5	292	0.00	29.924 
07:10	10.7	10.7	10.7	79	5.5	1	3	292	0.00	29.924 
07:15	10.5	10.5	10.5	79	5.3	1	4	292	0.00	29.940 
07:20	10.5	10.5	10.5	79	5.3	2	4	292	0.00	29.940 
07:25	10.4	10.4	10.4	79	5.2	2	5	270	0.00	29.940 
07:30	10.4	10.4	10.4	79	5.2	2	4	292	0.00	29.957 
07:35	10.2	10.2	10.2	79	5.0	2	6	292	0.00	29.957 
07:40	10.0	10.0	10.0	79	4.8	1	3	248	0.00	29.957 
07:45	9.9	9.9	9.9	79	4.7	1	4	270	0.00	29.974 
07:50	9.9	9.9	9.9	79	4.7	2	5	270	0.00	29.974 
07:55	9.7	9.7	9.7	79	4.5	1	4	270	0.00	29.974 
08:00	9.5	9.5	9.5	79	4.3	1	4	292	0.00	29.989 
08:05	9.3	9.3	9.3	79	4.1	1	4	315	0.00	29.989 
08:10	9.3	9.3	9.3	79	4.1	2	4	292	0.00	29.989 
08:15	9.2	9.2	9.2	79	4.0	2	4	315	0.00	30.004 
08:20	9.2	9.2	9.2	79	4.0	1	4	315	0.00	30.004 
08:25	9.0	9.0	9.0	79	3.8	1	3	315	0.00	30.004 
08:30	9.0	9.0	9.0	79	3.8	2	4	292	0.00	30.011 
08:35	9.0	9.0	9.0	78	3.6	2	5	292	0.00	30.011 
08:40	9.0	9.0	9.0	78	3.6	1	4	292	0.00	30.011 
08:45	9.0	9.0	9.0	78	3.6	2	6	292	0.00	30.026 
08:50	9.0	9.0	9.0	78	3.6	2	5	315	0.00	30.026 
08:55	9.0	9.0	9.0	78	3.6	2	6	338	0.00	30.026 
09:00	9.2	9.2	9.2	78	3.8	2	5	338	0.00	30.041 
09:05	9.3	9.3	9.3	78	3.9	2	5	338	0.00	30.041 
09:10	9.3	9.3	9.3	77	3.6	2	6	292	0.00	30.041 
09:15	9.2	9.2	9.2	77	3.5	2	6	315	0.00	30.058 
09:20	9.0	9.0	9.0	77	3.3	2	4	315	0.00	30.058 
09:25	9.0	9.0	9.0	77	3.3	1	5	270	0.00	30.058 
09:30	8.8	8.8	8.8	77	3.1	2	5	292	0.00	30.074 
09:35	9.0	9.0	9.0	77	3.3	2	4	292	0.00	30.074 
09:40	9.2	9.2	9.2	77	3.5	2	7	338	0.00	30.074 
09:45	9.2	9.2	9.2	77	3.5	2	4	315	0.00	30.091 
09:50	9.2	9.2	9.2	76	3.2	2	5	270	0.00	30.091 
09:55	9.2	9.2	9.2	76	3.2	2	5	270	0.00	30.091 
10:00	9.0	9.0	9.0	76	3.0	2	4	338	0.00	30.106 
10:05	9.0	9.0	9.0	76	3.0	1	4	315	0.00	30.106 
10:10	9.2	9.2	9.2	76	3.2	2	4	315	0.00	30.106 
10:15	9.3	9.3	9.3	76	3.3	2	4	292	0.00	30.111 
10:20	9.7	9.7	9.7	76	3.7	1	4	292	0.00	30.111 
10:25	9.7	9.7	9.7	75	3.4	2	4	315	0.00	30.111 
10:30	9.9	9.9	9.9	75	3.6	2	4	292	0.00	30.118 
10:35	10.0	10.0	10.0	75	3.7	1	4	338	0.00	30.118 
10:40	10.4	10.4	10.4	75	4.1	1	6	338	0.00	30.118 
10:45	10.5	10.5	10.5	75	4.2	1	4	315	0.00	30.120 
10:50	10.5	10.5	10.5	74	3.9	1	3	292	0.00	30.120 
10:55	10.7	10.7	10.7	74	4.1	1	5	338	0.00	30.120 
11:00	10.9	10.9	10.9	74	4.3	1	3	292	0.00	30.121 
11:05	11.1	11.1	11.1	74	4.5	0	2	292	0.00	30.121 
11:10	11.4	11.4	11.4	74	4.8	1	4	292	0.00	30.121 
11:15	11.4	11.4	11.4	73	4.5	1	3	315	0.00	30.129 
11:20	11.6	11.6	11.6	73	4.7	1	3	315	0.00	30.129 
11:25	11.9	11.9	11.9	74	5.2	1	3	315	0.00	30.129 
11:30	12.1	12.1	12.1	73	5.1	0	3	315	0.00	30.134 
11:35	12.1	12.1	12.1	73	5.1	1	3	248	0.00	30.134 
11:40	12.3	12.3	12.3	73	5.3	1	3	270	0.00	30.134 
11:45	12.1	12.1	12.1	72	4.8	2	5	315	0.00	30.145 
11:50	12.1	12.1	12.1	73	5.1	1	4	0	0.00	30.145 
11:55	12.3	12.3	12.3	73	5.3	1	4	270	0.00	30.145 
12:00	12.3	12.3	12.3	71	4.7	2	5	292	0.00	30.145 
12:05	12.4	12.4	12.4	72	5.1	1	2	315	0.00	30.145 
12:10	12.8	12.8	12.8	72	5.5	1	3	292	0.00	30.145 
12:15	12.8	12.8	12.8	72	5.5	2	3	292	0.00	30.150 
12:20	12.9	12.9	12.9	72	5.6	2	4	315	0.00	30.150 
12:25	12.8	12.8	12.8	71	5.2	2	4	315	0.00	30.150 
12:30	12.9	12.9	12.9	72	5.6	1	5	270	0.00	30.150 
12:35	13.3	13.3	13.3	72	6.0	1	3	292	0.00	30.150 
12:40	13.3	13.3	13.3	71	5.7	1	4	292	0.00	30.150 
12:45	13.1	13.1	13.1	71	5.5	2	4	270	0.00	30.150 
12:50	13.1	13.1	13.1	71	5.5	2	5	270	0.00	30.150 
12:55	13.3	13.3	13.3	70	5.4	2	4	315	0.00	30.150 
13:00	13.3	13.3	13.3	70	5.4	2	4	270	0.00	30.152 
13:05	13.5	13.5	13.5	69	5.3	2	4	292	0.00	30.152 
13:10	13.6	13.6	13.6	70	5.7	1	4	292	0.00	30.152 
13:15	13.6	13.6	13.6	69	5.4	1	5	292	0.00	30.153 
13:20	13.8	13.8	13.8	69	5.5	2	4	338	0.00	30.153 
13:25	14.0	14.0	14.0	68	5.4	1	5	315	0.00	30.153 
13:30	14.0	14.0	14.0	67	5.1	2	4	270	0.00	30.159 
13:35	14.1	14.1	14.1	65	4.5	1	4	270	0.00	30.159 
13:40	14.1	14.1	14.1	64	4.2	1	3	292	0.00	30.159 
13:45	14.3	14.3	14.3	63	4.0	1	3	292	0.00	30.153 
13:50	14.4	14.4	14.4	62	3.8	1	3	292	0.00	30.153 
13:55	14.6	14.6	14.6	62	4.0	1	2	270	0.00	30.153 
14:00	14.8	14.8	14.8	62	4.2	1	4	270	0.00	30.150 
14:05	14.9	14.9	14.9	60	3.6	1	3	315	0.00	30.150 
14:10	15.2	15.2	15.2	62	4.6	0	2	315	0.00	30.150 
14:15	15.4	15.4	15.4	62	4.7	1	3	270	0.00	30.151 
14:20	15.6	15.6	15.6	63	5.3	0	2	270	0.00	30.151 
14:25	15.6	15.6	15.6	62	4.9	0	2	270	0.00	30.151 
14:30	15.9	15.9	15.9	63	5.6	0	2	270	0.00	30.152 
14:35	16.1	16.1	16.1	62	5.4	0	2	270	0.00	30.152 
14:40	16.1	16.1	16.1	61	5.1	1	3	270	0.00	30.152 
14:45	16.1	16.1	16.1	59	4.3	1	3	270	0.00	30.153 
14:50	16.2	16.2	16.2	58	4.1	1	3	292	0.00	30.153 
14:55	16.4	16.4	16.4	57	3.9	1	3	292	0.00	30.153 
15:00	16.4	16.4	16.4	56	3.5	1	3	315	0.00	30.163 
15:05	16.4	16.4	16.4	51	1.5	1	3	315	0.00	30.163 
15:10	16.2	16.2	16.2	50	0.9	1	3	315	0.00	30.163 
15:15	16.2	16.2	16.2	50	0.9	1	4	292	0.00	30.166 
15:20	16.4	16.4	16.4	52	1.9	0	3	270	0.00	30.166 
15:25	16.5	16.5	16.5	53	2.4	1	3	270	0.00	30.166 
15:30	16.7	16.7	16.7	54	3.0	0	3	270	0.00	30.176 
15:35	16.5	16.5	16.5	51	1.6	1	4	270	0.00	30.176 
15:40	16.5	16.5	16.5	52	2.0	2	5	315	0.00	30.176 
15:45	16.5	16.5	16.5	53	2.4	1	3	270	0.00	30.181 
15:50	16.7	16.7	16.7	54	3.0	1	3	270	0.00	30.181 
15:55	16.5	16.5	16.5	53	2.4	1	3	315	0.00	30.181 
16:00	16.7	16.7	16.7	53	2.6	1	3	315	0.00	30.182 
16:05	16.5	16.5	16.5	53	2.4	1	4	315	0.00	30.182 
16:10	16.7	16.7	16.7	54	3.0	1	3	270	0.00	30.182 
16:15	16.5	16.5	16.5	53	2.4	1	3	270	0.00	30.187 
16:20	16.5	16.5	16.5	53	2.4	1	4	315	0.00	30.187 
16:25	16.5	16.5	16.5	54	2.8	0	4	315	0.00	30.187 
16:30	16.5	16.5	16.5	55	3.2	0	2	315	0.00	30.189 
16:35	16.7	16.7	16.7	55	3.4	0	2	315	0.00	30.189 
16:40	16.7	16.7	16.7	56	3.8	0	3	315	0.00	30.189 
16:45	16.7	16.7	16.7	55	3.4	0	2	315	0.00	30.196 
16:50	16.5	16.5	16.5	54	2.8	1	3	270	0.00	30.196 
16:55	16.5	16.5	16.5	56	3.6	0	2	270	0.00	30.196 
17:00	16.5	16.5	16.5	55	3.2	0	2	270	0.00	30.198 
17:05	16.5	16.5	16.5	54	2.8	1	4	270	0.00	30.198 
17:10	16.4	16.4	16.4	54	2.7	1	3	270	0.00	30.198 
17:15	16.2	16.2	16.2	55	2.9	1	3	270	0.00	30.201 
17:20	16.2	16.2	16.2	57	3.7	0	3	270	0.00	30.201 
17:25	16.1	16.1	16.1	58	4.0	0	2	270	0.00	30.201 
17:30	15.9	15.9	15.9	59	4.1	0	1	270	0.00	30.202 
17:35	15.6	15.6	15.6	59	3.9	0	1	270	0.00	30.202 
17:40	15.6	15.6	15.6	59	3.9	0	3	270	0.00	30.202 
17:45	15.4	15.4	15.4	60	4.0	0	0	---	0.00	30.203 
17:50	15.1	15.1	15.1	62	4.5	0	0	---	0.00	30.203 
17:55	14.8	14.8	14.8	63	4.5	0	0	---	0.00	30.203 
18:00	14.4	14.4	14.4	63	4.1	0	0	---	0.00	30.205 
18:05	14.1	14.1	14.1	64	4.2	0	0	---	0.00	30.205 
18:10	13.8	13.8	13.8	65	4.2	0	0	---	0.00	30.205 
18:15	13.5	13.5	13.5	66	4.3	0	0	---	0.00	30.219 
18:20	13.1	13.1	13.1	67	4.2	0	0	---	0.00	30.219 
18:25	13.1	13.1	13.1	68	4.6	0	0	---	0.00	30.219 
18:30	13.1	13.1	13.1	69	4.9	0	0	---	0.00	30.228 
18:35	13.1	13.1	13.1	70	5.2	0	0	---	0.00	30.228 
18:40	13.1	13.1	13.1	70	5.2	0	0	---	0.00	30.228 
18:45	12.9	12.9	12.9	71	5.3	0	0	---	0.00	30.226 
18:50	12.8	12.8	12.8	72	5.5	0	0	---	0.00	30.226 
18:55	12.4	12.4	12.4	72	5.1	0	0	---	0.00	30.226 
19:00	12.1	12.1	12.1	73	5.1	0	0	---	0.00	30.232 
19:05	11.9	11.9	11.9	73	4.9	0	0	---	0.00	30.232 
19:10	11.7	11.7	11.7	74	5.0	0	0	---	0.00	30.232 
19:15	11.7	11.7	11.7	74	5.0	0	0	---	0.00	30.237 
19:20	11.7	11.7	11.7	75	5.3	0	0	---	0.00	30.237 
19:25	11.6	11.6	11.6	75	5.2	0	0	---	0.00	30.237 
19:30	11.4	11.4	11.4	76	5.3	0	0	---	0.00	30.239 
19:35	11.4	11.4	11.4	77	5.6	0	0	---	0.00	30.239 
19:40	11.7	11.7	11.7	78	6.2	0	0	---	0.00	30.239 
19:45	12.4	12.4	12.4	79	7.2	0	1	270	0.00	30.243 
19:50	13.1	13.1	13.1	80	8.1	0	0	---	0.00	30.243 
19:55	13.8	13.8	13.8	81	9.1	0	2	270	0.00	30.243 
20:00	14.4	14.4	14.4	82	9.9	0	1	270	0.00	30.237 
20:05	14.9	14.9	14.9	82	10.4	0	2	270	0.00	30.237 
20:10	15.2	15.2	15.2	82	10.7	0	1	270	0.00	30.237 
20:15	15.6	15.6	15.6	82	11.1	0	2	270	0.00	30.242 
20:20	15.9	15.9	15.9	83	11.7	0	1	270	0.00	30.242 
20:25	16.1	16.1	16.1	83	11.9	0	1	270	0.00	30.242 
20:30	16.2	16.2	16.2	83	12.0	0	1	270	0.00	30.248 
20:35	16.4	16.4	16.4	83	12.2	0	1	270	0.00	30.248 
20:40	16.5	16.5	16.5	83	12.3	0	1	270	0.00	30.248 
20:45	16.5	16.5	16.5	83	12.3	0	2	270	0.00	30.241 
20:50	16.5	16.5	16.5	83	12.3	0	2	270	0.00	30.241 
20:55	16.5	16.5	16.5	83	12.3	0	2	270	0.00	30.241 
21:00	16.4	16.4	16.4	83	12.2	0	2	270	0.00	30.246 
21:05	16.4	16.4	16.4	83	12.2	1	2	270	0.00	30.246 
21:10	16.2	16.2	16.2	82	11.7	0	2	270	0.00	30.246 
21:15	16.2	16.2	16.2	82	11.7	0	3	270	0.00	30.242 
21:20	16.1	16.1	16.1	82	11.6	0	1	270	0.00	30.242 
21:25	16.1	16.1	16.1	82	11.6	0	1	270	0.00	30.242 
21:30	15.9	15.9	15.9	81	11.1	0	2	270	0.00	30.242 
21:35	15.9	15.9	15.9	81	11.1	0	2	270	0.00	30.242 
21:40	15.7	15.7	15.7	81	10.9	0	1	270	0.00	30.242 
21:45	15.7	15.7	15.7	81	10.9	0	1	270	0.00	30.250 
21:50	15.7	15.7	15.7	81	10.9	0	3	270	0.00	30.250 
21:55	15.7	15.7	15.7	81	10.9	1	2	270	0.00	30.250 
22:00	15.7	15.7	15.7	81	10.9	0	1	270	0.00	30.252 
22:05	15.6	15.6	15.6	81	10.8	0	2	270	0.00	30.252 
22:10	15.6	15.6	15.6	81	10.8	0	2	270	0.00	30.252 
22:15	15.4	15.4	15.4	81	10.6	0	1	270	0.00	30.244 
22:20	15.4	15.4	15.4	81	10.6	0	1	270	0.00	30.244 
22:25	15.2	15.2	15.2	81	10.4	0	2	270	0.00	30.244 
22:30	15.2	15.2	15.2	81	10.4	0	1	270	0.00	30.250 
22:35	15.1	15.1	15.1	81	10.3	0	1	270	0.00	30.250 
22:40	14.8	14.8	14.8	81	10.0	1	4	270	0.00	30.250 
22:45	14.6	14.6	14.6	81	9.9	1	2	248	0.00	30.252 
22:50	14.3	14.3	14.3	80	9.3	1	3	248	0.00	30.252 
22:55	14.1	14.1	14.1	80	9.1	0	1	248	0.00	30.252 
23:00	14.0	14.0	14.0	80	9.0	0	1	248	0.00	30.256 
23:05	13.8	13.8	13.8	80	8.8	0	1	248	0.00	30.256 
23:10	13.8	13.8	13.8	80	8.8	1	3	248	0.00	30.256 
23:15	13.6	13.6	13.6	80	8.6	1	2	248	0.00	30.251 
23:20	13.5	13.5	13.5	80	8.5	0	2	248	0.00	30.251 
23:25	13.3	13.3	13.3	80	8.3	0	2	248	0.00	30.251 
23:30	13.1	13.1	13.1	80	8.1	0	1	248	0.00	30.267 
23:35	12.9	12.9	12.9	80	7.9	0	1	248	0.00	30.267 
23:40	12.8	12.8	12.8	80	7.8	1	3	248	0.00	30.267 
23:45	12.4	12.4	12.4	79	7.2	0	2	248	0.00	30.260 
23:50	12.1	12.1	12.1	79	6.9	0	3	248	0.00	30.260 
23:55	11.9	11.9	11.9	79	6.7	0	2	248	0.00	30.260 

CoCoRaHS
IN-AL-39
A2 Web Hosting
Creative Commons License
GoDaddy
search engine by freefind advanced

loaded 2018-11-15 18:40:42 • last modified 2010-11-18 10:43:29
Privacy PolicyDisclaimer
• wx.awcolley.com is powered by PmWiki v.2002016 •
• all content (unless otherwise noted) © 2018 A W Colley